Wetterdaten: Woche 10.01.22 - 16.01.22 (KW2)
Datum Zeit Temp. Aussen Temp. o. S. Temp +5cm Feuchte Auss Luftdruck Regen Sonnenschein Regendauer Solar Windben Empfang
10.01.2022 00:00 0,6 C -1,1 C -1,9 C 95 % 1010,7 hPa 0,0 l/m 0,00 h 0,00 h 0 W/m 0,0 km/h (0 Bft) 94,68 %
10.01.2022 01:00 -0,6 C -1,7 C -2,2 C 95 % 1011,4 hPa 0,0 l/m 0,00 h 0,00 h 0 W/m 0,0 km/h (0 Bft) 98,79 %
10.01.2022 02:00 -1,3 C -2,1 C -2,4 C 95 % 1012,3 hPa 0,0 l/m 0,00 h 0,00 h 0 W/m 0,0 km/h (0 Bft) 98,30 %
10.01.2022 03:00 -1,6 C -2,4 C -2,8 C 95 % 1013,2 hPa 0,0 l/m 0,00 h 0,00 h 0 W/m 0,0 km/h (0 Bft) 94,88 %
10.01.2022 04:00 -1,9 C -2,8 C -2,8 C 96 % 1014,2 hPa 0,0 l/m 0,00 h 0,00 h 0 W/m 0,1 km/h (0 Bft) 96,37 %
10.01.2022 05:00 -2,0 C -2,5 C -2,7 C 96 % 1015,3 hPa 0,0 l/m 0,00 h 0,00 h 0 W/m 0,0 km/h (0 Bft) 95,88 %
10.01.2022 06:00 -1,4 C -1,5 C -1,9 C 96 % 1016,5 hPa 0,0 l/m 0,00 h 0,00 h 0 W/m 0,0 km/h (0 Bft) 98,02 %
10.01.2022 07:00 -0,7 C -1,8 C -2,0 C 97 % 1017,7 hPa 0,0 l/m 0,00 h 0,00 h 0 W/m 0,3 km/h (0 Bft) 94,80 %
10.01.2022 08:00 -1,2 C -2,3 C -2,3 C 97 % 1019,0 hPa 0,0 l/m 0,00 h 0,00 h 8 W/m 2,1 km/h (1 Bft) 99,22 %
10.01.2022 09:00 -0,6 C -1,0 C -1,4 C 97 % 1020,4 hPa 0,0 l/m 0,00 h 0,00 h 25 W/m 3,6 km/h (1 Bft) 95,25 %
10.01.2022 10:00 0,4 C 0,5 C -0,4 C 98 % 1021,3 hPa 0,0 l/m 0,77 h 0,03 h 147 W/m 5,3 km/h (1 Bft) 96,49 %
10.01.2022 11:00 2,4 C 2,7 C 0,9 C 98 % 1022,2 hPa 0,0 l/m 0,63 h 0,03 h 173 W/m 6,0 km/h (2 Bft) 98,65 %
10.01.2022 12:00 3,6 C 7,2 C 2,0 C 98 % 1022,8 hPa 0,0 l/m 0,40 h 0,00 h 150 W/m 8,6 km/h (2 Bft) 93,82 %
10.01.2022 13:00 5,5 C 14,6 C 2,8 C 93 % 1023,5 hPa 0,0 l/m 1,00 h 0,00 h 270 W/m 7,9 km/h (2 Bft) 97,72 %
10.01.2022 14:00 6,2 C 9,8 C 3,3 C 86 % 1024,3 hPa 0,0 l/m 1,00 h 0,00 h 197 W/m 8,4 km/h (2 Bft) 97,66 %
10.01.2022 15:00 5,9 C 5,4 C 3,1 C 86 % 1025,0 hPa 0,0 l/m 0,30 h 0,00 h 67 W/m 7,2 km/h (2 Bft) 99,64 %
10.01.2022 16:00 5,0 C 3,1 C 1,4 C 87 % 1025,8 hPa 0,0 l/m 0,00 h 0,00 h 15 W/m 1,4 km/h (1 Bft) 95,52 %
10.01.2022 17:00 3,2 C 0,5 C -0,6 C 87 % 1026,8 hPa 0,0 l/m 0,00 h 0,00 h 0 W/m 0,0 km/h (0 Bft) 96,80 %
10.01.2022 18:00 1,3 C -0,8 C -1,4 C 89 % 1027,6 hPa 0,0 l/m 0,00 h 0,00 h 0 W/m 0,0 km/h (0 Bft) 97,40 %
10.01.2022 19:00 0,1 C -1,4 C -1,9 C 90 % 1028,4 hPa 0,0 l/m 0,00 h 0,00 h 0 W/m 0,0 km/h (0 Bft) 96,52 %
10.01.2022 20:00 -0,6 C -1,8 C -2,2 C 91 % 1029,1 hPa 0,0 l/m 0,00 h 0,00 h 0 W/m 0,1 km/h (0 Bft) 93,11 %
10.01.2022 21:00 -0,9 C -2,0 C -2,5 C 93 % 1029,7 hPa 0,0 l/m 0,00 h 0,00 h 0 W/m 0,0 km/h (0 Bft) 97,72 %
10.01.2022 22:00 -1,4 C -2,2 C -2,7 C 93 % 1030,1 hPa 0,0 l/m 0,00 h 0,00 h 0 W/m 0,5 km/h (0 Bft) 97,29 %
10.01.2022 23:00 -0,4 C -0,8 C -1,3 C 95 % 1030,5 hPa 0,0 l/m 0,00 h 0,00 h 0 W/m 5,2 km/h (1 Bft) 97,63 %
11.01.2022 00:00 -0,2 C -1,1 C -1,2 C 96 % 1030,9 hPa 0,0 l/m 0,00 h 0,00 h 0 W/m 14,0 km/h (3 Bft) 96,57 %
11.01.2022 01:00 -0,7 C -1,2 C -1,4 C 97 % 1031,2 hPa 0,2 l/m 0,00 h 0,00 h 0 W/m 14,8 km/h (3 Bft) 96,45 %
11.01.2022 02:00 -0,6 C -1,1 C -1,1 C 97 % 1031,6 hPa 0,0 l/m 0,00 h 0,00 h 0 W/m 10,6 km/h (2 Bft) 99,14 %
11.01.2022 03:00 -0,7 C -1,1 C -1,1 C 98 % 1032,1 hPa 0,0 l/m 0,00 h 0,00 h 0 W/m 13,9 km/h (3 Bft) 93,31 %
11.01.2022 04:00 -0,7 C -1,1 C -1,1 C 98 % 1032,3 hPa 0,0 l/m 0,00 h 0,00 h 0 W/m 10,8 km/h (2 Bft) 98,93 %
11.01.2022 05:00 -0,6 C -1,1 C -0,7 C 98 % 1032,6 hPa 0,0 l/m 0,00 h 0,00 h 0 W/m 9,2 km/h (2 Bft) 96,66 %
11.01.2022 06:00 -0,8 C -1,4 C -0,9 C 98 % 1032,7 hPa 0,0 l/m 0,00 h 0,00 h 0 W/m 10,4 km/h (2 Bft) 96,06 %
11.01.2022 07:00 -0,9 C -1,7 C -1,1 C 98 % 1033,0 hPa 0,0 l/m 0,00 h 0,00 h 0 W/m 12,1 km/h (2 Bft) 96,94 %
11.01.2022 08:00 -1,2 C -1,7 C -1,1 C 98 % 1033,5 hPa 0,0 l/m 0,00 h 0,00 h 6 W/m 12,0 km/h (2 Bft) 98,89 %
11.01.2022 09:00 -1,1 C -1,7 C -1,0 C 99 % 1034,1 hPa 0,0 l/m 0,00 h 0,00 h 25 W/m 12,1 km/h (2 Bft) 95,04 %
11.01.2022 10:00 -1,1 C -1,4 C -0,7 C 99 % 1034,3 hPa 0,0 l/m 0,00 h 0,00 h 76 W/m 12,1 km/h (2 Bft) 98,44 %
11.01.2022 11:00 -0,6 C -0,7 C -0,1 C 99 % 1034,4 hPa 0,0 l/m 0,00 h 0,00 h 118 W/m 12,7 km/h (3 Bft) 98,01 %
11.01.2022 12:00 -0,3 C 0,3 C 0,4 C 99 % 1034,6 hPa 0,0 l/m 0,13 h 0,00 h 141 W/m 11,6 km/h (2 Bft) 96,21 %
11.01.2022 13:00 0,3 C 1,1 C 1,1 C 99 % 1034,4 hPa 0,0 l/m 0,13 h 0,00 h 132 W/m 11,3 km/h (2 Bft) 98,41 %
11.01.2022 14:00 0,6 C 1,3 C 1,1 C 99 % 1034,1 hPa 0,0 l/m 0,53 h 0,00 h 131 W/m 9,6 km/h (2 Bft) 98,44 %
11.01.2022 15:00 1,2 C 1,7 C 1,6 C 99 % 1034,2 hPa 0,0 l/m 0,50 h 0,00 h 89 W/m 6,2 km/h (2 Bft) 94,69 %
11.01.2022 16:00 1,1 C 0,7 C 1,1 C 99 % 1034,2 hPa 0,0 l/m 0,00 h 0,00 h 16 W/m 4,9 km/h (1 Bft) 98,72 %
11.01.2022 17:00 0,8 C -0,4 C 0,2 C 99 % 1034,4 hPa 0,0 l/m 0,00 h 0,00 h 1 W/m 0,6 km/h (0 Bft) 97,15 %
11.01.2022 18:00 0,2 C -0,8 C -0,2 C 99 % 1034,7 hPa 0,0 l/m 0,00 h 0,00 h 0 W/m 0,0 km/h (0 Bft) 95,64 %
11.01.2022 19:00 -0,2 C -1,1 C -0,6 C 99 % 1035,3 hPa 0,0 l/m 0,00 h 0,00 h 0 W/m 0,0 km/h (0 Bft) 95,36 %
11.01.2022 20:00 0,4 C 0,4 C 0,5 C 99 % 1035,5 hPa 0,0 l/m 0,00 h 0,00 h 0 W/m 8,1 km/h (2 Bft) 97,45 %
11.01.2022 21:00 0,9 C 0,4 C 0,6 C 99 % 1035,7 hPa 0,0 l/m 0,00 h 0,00 h 0 W/m 6,5 km/h (2 Bft) 95,44 %
11.01.2022 22:00 0,7 C 0,5 C 0,6 C 99 % 1036,1 hPa 0,0 l/m 0,00 h 0,00 h 0 W/m 6,0 km/h (2 Bft) 98,01 %
11.01.2022 23:00 0,6 C 0,0 C 0,6 C 99 % 1036,2 hPa 0,0 l/m 0,00 h 0,00 h 0 W/m 9,7 km/h (2 Bft) 95,83 %
12.01.2022 00:00 0,2 C -0,5 C 0,0 C 99 % 1036,5 hPa 0,0 l/m 0,00 h 0,00 h 0 W/m 8,4 km/h (2 Bft) 96,87 %
12.01.2022 01:00 0,1 C -0,6 C 0,0 C 99 % 1036,4 hPa 0,0 l/m 0,00 h 0,00 h 0 W/m 10,0 km/h (2 Bft) 96,25 %
12.01.2022 02:00 -0,0 C -0,6 C 0,0 C 99 % 1037,2 hPa 0,0 l/m 0,00 h 0,00 h 0 W/m 5,3 km/h (1 Bft) 97,65 %
12.01.2022 03:00 0,0 C -0,4 C 0,0 C 99 % 1037,3 hPa 0,0 l/m 0,00 h 0,00 h 0 W/m 9,4 km/h (2 Bft) 98,00 %
12.01.2022 04:00 -0,0 C -0,4 C 0,0 C 98 % 1037,2 hPa 0,0 l/m 0,00 h 0,00 h 0 W/m 6,1 km/h (2 Bft) 95,99 %
12.01.2022 05:00 0,2 C 0,0 C 0,6 C 98 % 1037,6 hPa 0,0 l/m 0,00 h 0,00 h 0 W/m 4,1 km/h (1 Bft) 98,16 %
12.01.2022 06:00 0,4 C 0,0 C 0,6 C 98 % 1037,8 hPa 0,0 l/m 0,00 h 0,00 h 0 W/m 3,3 km/h (1 Bft) 96,36 %
12.01.2022 07:00 0,6 C 0,3 C 0,6 C 98 % 1037,8 hPa 0,0 l/m 0,00 h 0,00 h 0 W/m 4,2 km/h (1 Bft) 97,42 %
12.01.2022 08:00 0,8 C 0,6 C 0,9 C 98 % 1038,7 hPa 0,0 l/m 0,00 h 0,00 h 0 W/m 0,7 km/h (0 Bft) 97,22 %
12.01.2022 09:00 1,1 C 1,0 C 1,1 C 98 % 1039,3 hPa 0,0 l/m 0,00 h 0,00 h 12 W/m 0,7 km/h (0 Bft) 98,51 %
12.01.2022 10:00 1,5 C 1,4 C 1,4 C 98 % 1040,0 hPa 0,0 l/m 0,00 h 0,00 h 34 W/m 1,6 km/h (1 Bft) 95,25 %
12.01.2022 11:00 2,2 C 2,2 C 2,1 C 98 % 1040,2 hPa 0,0 l/m 0,00 h 0,00 h 56 W/m 3,1 km/h (1 Bft) 96,06 %
12.01.2022 12:00 2,7 C 2,2 C 2,2 C 98 % 1040,4 hPa 0,0 l/m 0,00 h 0,00 h 54 W/m 3,0 km/h (1 Bft) 96,00 %
12.01.2022 13:00 2,9 C 2,8 C 2,4 C 98 % 1040,3 hPa 0,0 l/m 0,00 h 0,00 h 55 W/m 2,7 km/h (1 Bft) 97,93 %
12.01.2022 14:00 3,1 C 2,8 C 2,8 C 98 % 1040,2 hPa 0,0 l/m 0,00 h 0,00 h 43 W/m 2,9 km/h (1 Bft) 96,87 %
12.01.2022 15:00 3,2 C 2,8 C 2,8 C 98 % 1040,3 hPa 0,0 l/m 0,00 h 0,00 h 23 W/m 1,8 km/h (1 Bft) 96,50 %
12.01.2022 16:00 3,1 C 2,8 C 2,8 C 99 % 1040,4 hPa 0,0 l/m 0,00 h 0,00 h 7 W/m 1,1 km/h (0 Bft) 94,17 %
12.01.2022 17:00 2,9 C 2,8 C 2,8 C 99 % 1040,8 hPa 0,0 l/m 0,00 h 0,00 h 0 W/m 2,3 km/h (1 Bft) 98,79 %
12.01.2022 18:00 2,8 C 2,8 C 2,8 C 99 % 1041,1 hPa 0,0 l/m 0,00 h 0,00 h 0 W/m 1,2 km/h (1 Bft) 96,55 %
12.01.2022 19:00 3,2 C 2,9 C 2,8 C 98 % 1041,5 hPa 0,0 l/m 0,00 h 0,00 h 0 W/m 2,9 km/h (1 Bft) 97,36 %
12.01.2022 20:00 3,2 C 2,8 C 2,8 C 97 % 1042,0 hPa 0,0 l/m 0,00 h 0,00 h 0 W/m 4,1 km/h (1 Bft) 97,23 %
12.01.2022 21:00 3,0 C 2,6 C 2,4 C 96 % 1042,0 hPa 0,0 l/m 0,00 h 0,00 h 0 W/m 6,0 km/h (2 Bft) 96,51 %
12.01.2022 22:00 2,8 C 2,2 C 2,2 C 95 % 1042,1 hPa 0,0 l/m 0,00 h 0,00 h 0 W/m 5,7 km/h (1 Bft) 97,65 %
12.01.2022 23:00 2,7 C 2,2 C 2,2 C 95 % 1042,2 hPa 0,0 l/m 0,00 h 0,00 h 0 W/m 4,7 km/h (1 Bft) 98,50 %
13.01.2022 00:00 2,6 C 2,2 C 1,8 C 95 % 1041,9 hPa 0,0 l/m 0,00 h 0,00 h 0 W/m 10,6 km/h (2 Bft) 96,46 %
13.01.2022 01:00 2,5 C 2,2 C 1,7 C 95 % 1041,9 hPa 0,0 l/m 0,00 h 0,00 h 0 W/m 5,8 km/h (2 Bft) 97,72 %
13.01.2022 02:00 2,3 C 1,9 C 1,7 C 95 % 1042,1 hPa 0,0 l/m 0,00 h 0,00 h 0 W/m 9,5 km/h (2 Bft) 98,72 %
13.01.2022 03:00 2,0 C 1,7 C 1,3 C 95 % 1042,2 hPa 0,0 l/m 0,00 h 0,00 h 0 W/m 6,9 km/h (2 Bft) 94,81 %
13.01.2022 04:00 1,8 C 1,1 C 1,1 C 96 % 1042,0 hPa 0,0 l/m 0,00 h 0,00 h 0 W/m 10,3 km/h (2 Bft) 98,26 %
13.01.2022 05:00 1,7 C 1,1 C 1,1 C 96 % 1041,9 hPa 0,0 l/m 0,00 h 0,00 h 0 W/m 9,3 km/h (2 Bft) 97,02 %
13.01.2022 06:00 1,4 C 0,9 C 0,9 C 97 % 1041,5 hPa 0,0 l/m 0,00 h 0,00 h 0 W/m 9,8 km/h (2 Bft) 98,43 %
13.01.2022 07:00 1,1 C 0,6 C 0,6 C 97 % 1041,4 hPa 0,0 l/m 0,00 h 0,00 h 0 W/m 8,6 km/h (2 Bft) 96,80 %
13.01.2022 08:00 1,1 C 0,6 C 0,6 C 97 % 1041,7 hPa 0,0 l/m 0,00 h 0,00 h 6 W/m 8,0 km/h (2 Bft) 98,72 %
13.01.2022 09:00 0,8 C 0,6 C 0,6 C 98 % 1041,9 hPa 0,0 l/m 0,00 h 0,00 h 17 W/m 9,7 km/h (2 Bft) 96,94 %
13.01.2022 10:00 0,6 C 0,5 C 0,6 C 98 % 1042,3 hPa 0,0 l/m 0,00 h 0,00 h 41 W/m 10,4 km/h (2 Bft) 96,51 %
13.01.2022 11:00 0,6 C 0,6 C 0,6 C 98 % 1042,3 hPa 0,0 l/m 0,00 h 0,00 h 60 W/m 9,3 km/h (2 Bft) 98,43 %
13.01.2022 12:00 1,0 C 1,3 C 1,1 C 98 % 1041,9 hPa 0,0 l/m 0,00 h 0,00 h 98 W/m 10,4 km/h (2 Bft) 95,69 %
13.01.2022 13:00 1,6 C 2,2 C 1,8 C 98 % 1041,1 hPa 0,0 l/m 0,00 h 0,00 h 107 W/m 9,2 km/h (2 Bft) 96,08 %
13.01.2022 14:00 2,4 C 3,9 C 2,2 C 98 % 1040,7 hPa 0,0 l/m 0,37 h 0,00 h 132 W/m 7,9 km/h (2 Bft) 97,94 %
13.01.2022 15:00 3,8 C 4,3 C 2,6 C 96 % 1040,3 hPa 0,0 l/m 0,40 h 0,00 h 71 W/m 2,2 km/h (1 Bft) 95,66 %
13.01.2022 16:00 3,7 C 2,5 C 1,5 C 94 % 1040,0 hPa 0,0 l/m 0,00 h 0,00 h 16 W/m 0,0 km/h (0 Bft) 98,32 %
13.01.2022 17:00 2,8 C 1,0 C 0,3 C 93 % 1039,9 hPa 0,0 l/m 0,00 h 0,00 h 0 W/m 0,0 km/h (0 Bft) 95,37 %
13.01.2022 18:00 1,8 C 0,5 C -0,1 C 94 % 1039,8 hPa 0,0 l/m 0,00 h 0,00 h 0 W/m 2,0 km/h (1 Bft) 97,58 %
13.01.2022 19:00 1,6 C 0,8 C 0,3 C 96 % 1039,9 hPa 0,0 l/m 0,00 h 0,00 h 0 W/m 1,8 km/h (1 Bft) 96,94 %
13.01.2022 20:00 2,0 C 1,2 C 1,1 C 97 % 1039,7 hPa 0,0 l/m 0,00 h 0,00 h 0 W/m 3,4 km/h (1 Bft) 97,67 %
13.01.2022 21:00 1,8 C 1,1 C 1,1 C 98 % 1039,5 hPa 0,2 l/m 0,00 h 0,00 h 0 W/m 3,3 km/h (1 Bft) 95,80 %
13.01.2022 22:00 1,8 C 1,1 C 1,1 C 98 % 1039,3 hPa 0,0 l/m 0,00 h 0,00 h 0 W/m 3,5 km/h (1 Bft) 98,57 %
13.01.2022 23:00 1,7 C 1,1 C 1,1 C 98 % 1039,1 hPa 0,0 l/m 0,00 h 0,00 h 0 W/m 6,4 km/h (2 Bft) 98,03 %
14.01.2022 00:00 1,6 C 1,1 C 1,1 C 98 % 1038,6 hPa 0,0 l/m 0,00 h 0,00 h 0 W/m 7,5 km/h (2 Bft) 95,72 %
14.01.2022 01:00 1,5 C 1,1 C 1,1 C 99 % 1038,1 hPa 0,0 l/m 0,00 h 0,00 h 0 W/m 5,4 km/h (1 Bft) 96,98 %
14.01.2022 02:00 1,6 C 1,1 C 1,1 C 99 % 1038,1 hPa 0,0 l/m 0,00 h 0,00 h 0 W/m 2,8 km/h (1 Bft) 97,06 %
14.01.2022 03:00 1,3 C 0,6 C 1,1 C 99 % 1037,8 hPa 0,0 l/m 0,00 h 0,00 h 0 W/m 6,8 km/h (2 Bft) 95,58 %
14.01.2022 04:00 1,0 C 0,6 C 1,1 C 99 % 1037,3 hPa 0,0 l/m 0,00 h 0,00 h 0 W/m 4,7 km/h (1 Bft) 99,34 %
14.01.2022 05:00 0,8 C 0,4 C 1,1 C 99 % 1036,9 hPa 0,0 l/m 0,00 h 0,00 h 0 W/m 5,5 km/h (1 Bft) 97,08 %
14.01.2022 06:00 0,8 C 0,5 C 1,0 C 99 % 1036,8 hPa 0,0 l/m 0,00 h 0,00 h 0 W/m 3,4 km/h (1 Bft) 93,28 %
14.01.2022 07:00 0,7 C 0,1 C 0,9 C 99 % 1036,7 hPa 0,0 l/m 0,00 h 0,00 h 0 W/m 3,4 km/h (1 Bft) 97,29 %
14.01.2022 08:00 0,6 C 0,1 C 1,0 C 99 % 1036,6 hPa 0,0 l/m 0,00 h 0,00 h 7 W/m 4,7 km/h (1 Bft) 97,66 %
14.01.2022 09:00 0,7 C 0,4 C 1,1 C 99 % 1036,6 hPa 0,0 l/m 0,00 h 0,00 h 24 W/m 5,9 km/h (2 Bft) 97,39 %
14.01.2022 10:00 1,2 C 1,0 C 1,5 C 100 % 1036,8 hPa 0,0 l/m 0,00 h 0,00 h 42 W/m 4,4 km/h (1 Bft) 96,27 %
14.01.2022 11:00 1,7 C 1,6 C 1,9 C 100 % 1037,1 hPa 0,0 l/m 0,00 h 0,00 h 44 W/m 2,1 km/h (1 Bft) 99,64 %
14.01.2022 12:00 2,1 C 2,1 C 2,3 C 100 % 1036,6 hPa 0,0 l/m 0,00 h 0,00 h 51 W/m 2,3 km/h (1 Bft) 95,04 %
14.01.2022 13:00 2,6 C 2,6 C 2,8 C 100 % 1036,4 hPa 0,0 l/m 0,00 h 0,00 h 50 W/m 1,5 km/h (1 Bft) 98,21 %
14.01.2022 14:00 3,1 C 3,2 C 3,3 C 100 % 1036,0 hPa 0,0 l/m 0,00 h 0,00 h 45 W/m 2,7 km/h (1 Bft) 97,13 %
14.01.2022 15:00 3,2 C 2,9 C 3,3 C 100 % 1035,7 hPa 0,0 l/m 0,00 h 0,00 h 19 W/m 1,9 km/h (1 Bft) 96,01 %
14.01.2022 16:00 3,2 C 2,8 C 3,3 C 100 % 1035,7 hPa 0,0 l/m 0,00 h 0,00 h 8 W/m 0,0 km/h (0 Bft) 96,48 %
14.01.2022 17:00 3,1 C 2,8 C 3,3 C 100 % 1035,5 hPa 0,0 l/m 0,00 h 0,00 h 0 W/m 0,0 km/h (0 Bft) 99,08 %
14.01.2022 18:00 3,2 C 3,0 C 3,3 C 100 % 1035,4 hPa 0,0 l/m 0,00 h 0,00 h 0 W/m 0,0 km/h (0 Bft) 94,81 %
14.01.2022 19:00 3,2 C 3,3 C 3,3 C 100 % 1035,2 hPa 0,0 l/m 0,00 h 0,00 h 0 W/m 0,0 km/h (0 Bft) 99,43 %
14.01.2022 20:00 3,1 C 2,9 C 3,3 C 100 % 1034,9 hPa 0,0 l/m 0,00 h 0,00 h 0 W/m 0,0 km/h (0 Bft) 96,52 %
14.01.2022 21:00 3,0 C 2,8 C 2,9 C 100 % 1034,5 hPa 0,0 l/m 0,00 h 0,00 h 0 W/m 0,0 km/h (0 Bft) 97,64 %
14.01.2022 22:00 2,9 C 2,7 C 2,8 C 100 % 1034,2 hPa 0,0 l/m 0,00 h 0,00 h 0 W/m 0,6 km/h (0 Bft) 97,05 %
14.01.2022 23:00 2,8 C 2,4 C 2,8 C 100 % 1034,0 hPa 0,0 l/m 0,00 h 0,00 h 0 W/m 0,6 km/h (0 Bft) 98,01 %
15.01.2022 00:00 2,5 C 2,2 C 2,5 C 100 % 1033,7 hPa 0,0 l/m 0,00 h 0,00 h 0 W/m 6,6 km/h (2 Bft) 97,24 %
15.01.2022 01:00 2,3 C 1,9 C 2,2 C 100 % 1033,5 hPa 0,0 l/m 0,00 h 0,00 h 0 W/m 7,8 km/h (2 Bft) 96,87 %
15.01.2022 02:00 2,0 C 1,4 C 2,0 C 100 % 1032,9 hPa 0,0 l/m 0,00 h 0,00 h 0 W/m 8,6 km/h (2 Bft) 97,63 %
15.01.2022 03:00 1,8 C 1,1 C 1,7 C 100 % 1032,5 hPa 0,0 l/m 0,00 h 0,00 h 0 W/m 6,1 km/h (2 Bft) 97,22 %
15.01.2022 04:00 1,7 C 1,1 C 1,7 C 100 % 1031,9 hPa 0,0 l/m 0,00 h 0,00 h 0 W/m 11,1 km/h (2 Bft) 97,49 %
15.01.2022 05:00 1,2 C 0,7 C 1,5 C 100 % 1031,2 hPa 0,0 l/m 0,00 h 0,00 h 0 W/m 13,1 km/h (3 Bft) 98,36 %
15.01.2022 06:00 0,7 C 0,2 C 1,1 C 99 % 1031,0 hPa 0,0 l/m 0,00 h 0,00 h 0 W/m 11,4 km/h (2 Bft) 96,39 %
15.01.2022 07:00 0,7 C 0,4 C 1,1 C 99 % 1030,7 hPa 0,0 l/m 0,00 h 0,00 h 0 W/m 11,0 km/h (2 Bft) 96,92 %
15.01.2022 08:00 0,9 C 0,6 C 1,1 C 100 % 1030,4 hPa 0,0 l/m 0,00 h 0,00 h 4 W/m 11,7 km/h (2 Bft) 98,19 %
15.01.2022 09:00 0,8 C 0,6 C 1,2 C 100 % 1030,2 hPa 0,0 l/m 0,00 h 0,00 h 13 W/m 13,3 km/h (3 Bft) 97,86 %
15.01.2022 10:00 0,9 C 0,8 C 1,6 C 100 % 1030,0 hPa 0,0 l/m 0,00 h 0,00 h 33 W/m 14,4 km/h (3 Bft) 95,34 %
15.01.2022 11:00 1,4 C 1,3 C 2,0 C 100 % 1029,5 hPa 0,0 l/m 0,00 h 0,00 h 52 W/m 15,0 km/h (3 Bft) 97,43 %
15.01.2022 12:00 1,9 C 2,0 C 2,5 C 100 % 1029,3 hPa 0,0 l/m 0,00 h 0,00 h 61 W/m 12,2 km/h (3 Bft) 99,00 %
15.01.2022 13:00 2,3 C 2,2 C 2,8 C 100 % 1028,4 hPa 0,0 l/m 0,00 h 0,00 h 65 W/m 15,1 km/h (3 Bft) 95,23 %
15.01.2022 14:00 2,5 C 2,6 C 2,8 C 100 % 1027,7 hPa 0,0 l/m 0,00 h 0,00 h 48 W/m 14,1 km/h (3 Bft) 99,79 %
15.01.2022 15:00 2,7 C 2,7 C 2,8 C 100 % 1027,1 hPa 0,0 l/m 0,00 h 0,00 h 24 W/m 11,7 km/h (2 Bft) 96,15 %
15.01.2022 16:00 2,8 C 2,2 C 2,8 C 100 % 1026,8 hPa 0,0 l/m 0,00 h 0,00 h 6 W/m 9,0 km/h (2 Bft) 95,51 %
15.01.2022 17:00 2,6 C 2,2 C 2,6 C 99 % 1026,7 hPa 0,0 l/m 0,00 h 0,00 h 0 W/m 11,4 km/h (2 Bft) 98,08 %
15.01.2022 18:00 2,4 C 2,0 C 2,2 C 99 % 1026,2 hPa 0,0 l/m 0,00 h 0,00 h 0 W/m 13,7 km/h (3 Bft) 97,02 %
15.01.2022 19:00 2,1 C 1,7 C 2,2 C 99 % 1025,8 hPa 0,0 l/m 0,00 h 0,00 h 0 W/m 17,7 km/h (3 Bft) 97,19 %
15.01.2022 20:00 1,9 C 1,4 C 1,9 C 99 % 1025,6 hPa 0,0 l/m 0,00 h 0,00 h 0 W/m 15,8 km/h (3 Bft) 98,22 %
15.01.2022 21:00 1,7 C 1,1 C 1,7 C 99 % 1025,0 hPa 0,0 l/m 0,00 h 0,00 h 0 W/m 17,1 km/h (3 Bft) 97,36 %
15.01.2022 22:00 1,7 C 1,1 C 1,7 C 99 % 1024,8 hPa 0,0 l/m 0,00 h 0,00 h 0 W/m 14,9 km/h (3 Bft) 97,69 %
15.01.2022 23:00 1,7 C 1,1 C 1,7 C 99 % 1024,6 hPa 0,0 l/m 0,00 h 0,00 h 0 W/m 13,6 km/h (3 Bft) 97,23 %
16.01.2022 00:00 1,8 C 1,1 C 1,8 C 99 % 1024,2 hPa 0,0 l/m 0,00 h 0,00 h 0 W/m 12,3 km/h (3 Bft) 92,30 %
16.01.2022 01:00 1,9 C 1,6 C 2,2 C 99 % 1024,1 hPa 0,0 l/m 0,00 h 0,00 h 0 W/m 12,5 km/h (3 Bft) 96,60 %
16.01.2022 02:00 1,8 C 1,2 C 1,9 C 99 % 1024,0 hPa 0,0 l/m 0,00 h 0,00 h 0 W/m 11,0 km/h (2 Bft) 98,81 %
16.01.2022 03:00 1,6 C 1,1 C 1,7 C 99 % 1024,1 hPa 0,0 l/m 0,00 h 0,00 h 0 W/m 11,4 km/h (2 Bft) 97,93 %
16.01.2022 04:00 1,3 C 1,0 C 1,7 C 99 % 1023,6 hPa 0,0 l/m 0,00 h 0,00 h 0 W/m 12,1 km/h (2 Bft) 96,22 %
16.01.2022 05:00 1,4 C 1,1 C 1,8 C 99 % 1023,6 hPa 0,0 l/m 0,00 h 0,00 h 0 W/m 5,7 km/h (1 Bft) 99,50 %
16.01.2022 06:00 1,9 C 1,7 C 2,2 C 99 % 1023,5 hPa 0,0 l/m 0,00 h 0,00 h 0 W/m 7,8 km/h (2 Bft) 96,09 %
16.01.2022 07:00 2,3 C 2,2 C 2,4 C 99 % 1023,6 hPa 0,0 l/m 0,00 h 0,00 h 0 W/m 10,5 km/h (2 Bft) 96,58 %
16.01.2022 08:00 2,7 C 2,4 C 2,8 C 99 % 1024,0 hPa 0,0 l/m 0,00 h 0,00 h 0 W/m 9,1 km/h (2 Bft) 97,81 %
16.01.2022 09:00 3,2 C 2,8 C 2,8 C 98 % 1024,4 hPa 0,0 l/m 0,00 h 0,00 h 10 W/m 11,4 km/h (2 Bft) 97,65 %
16.01.2022 10:00 3,5 C 3,2 C 3,3 C 97 % 1024,9 hPa 0,0 l/m 0,00 h 0,00 h 36 W/m 12,6 km/h (3 Bft) 95,77 %
16.01.2022 11:00 4,0 C 3,8 C 3,4 C 96 % 1025,3 hPa 0,0 l/m 0,00 h 0,00 h 45 W/m 14,9 km/h (3 Bft) 98,36 %
16.01.2022 12:00 4,4 C 4,3 C 4,0 C 95 % 1025,6 hPa 0,0 l/m 0,00 h 0,00 h 86 W/m 18,5 km/h (3 Bft) 96,09 %
16.01.2022 13:00 4,6 C 5,2 C 4,2 C 94 % 1025,7 hPa 0,0 l/m 0,13 h 0,00 h 131 W/m 16,5 km/h (3 Bft) 98,86 %
16.01.2022 14:00 4,7 C 4,4 C 4,0 C 93 % 1025,7 hPa 0,0 l/m 0,00 h 0,00 h 60 W/m 16,1 km/h (3 Bft) 97,44 %
16.01.2022 15:00 4,6 C 4,1 C 3,6 C 94 % 1026,0 hPa 0,0 l/m 0,00 h 0,00 h 23 W/m 15,0 km/h (3 Bft) 96,66 %
16.01.2022 16:00 4,4 C 3,9 C 3,3 C 95 % 1026,4 hPa 0,0 l/m 0,00 h 0,00 h 12 W/m 14,2 km/h (3 Bft) 98,64 %
16.01.2022 17:00 4,3 C 3,9 C 3,3 C 95 % 1027,0 hPa 0,0 l/m 0,00 h 0,00 h 0 W/m 15,5 km/h (3 Bft) 95,83 %
16.01.2022 18:00 4,3 C 3,7 C 3,0 C 96 % 1027,6 hPa 0,4 l/m 0,00 h 0,23 h 0 W/m 13,0 km/h (3 Bft) 96,51 %
16.01.2022 19:00 4,3 C 3,7 C 2,8 C 97 % 1028,4 hPa 0,0 l/m 0,00 h 0,00 h 0 W/m 14,3 km/h (3 Bft) 99,02 %
16.01.2022 20:00 4,3 C 3,9 C 3,0 C 98 % 1028,7 hPa 0,0 l/m 0,00 h 0,00 h 0 W/m 12,7 km/h (3 Bft) 97,23 %
16.01.2022 21:00 4,4 C 3,9 C 3,3 C 98 % 1029,3 hPa 0,0 l/m 0,00 h 0,00 h 0 W/m 14,0 km/h (3 Bft) 97,59 %
16.01.2022 22:00 4,6 C 3,9 C 3,3 C 98 % 1029,7 hPa 0,0 l/m 0,00 h 0,07 h 0 W/m 14,1 km/h (3 Bft) 97,15 %
16.01.2022 23:00 4,5 C 3,9 C 3,3 C 99 % 1030,2 hPa 0,0 l/m 0,00 h 0,13 h 0 W/m 15,5 km/h (3 Bft) 99,41 %
Min-Datum _ 10.01.22 10.01.22 10.01.22 10.01.22 10.01.22 - - - - 10.01.22 16.01.22
_ Min-Zeit 04:36 03:38 02:44 14:24 00:00 - - - - 00:00 00:02
Minimum _ -2,0 C -2,8 C -2,8 C 86 % 1010,3 hPa - - - - 0,0 km/h (0 Bft) 9,52 %
Max-Datum _ 10.01.22 10.01.22 16.01.22 14.01.22 12.01.22 16.01.22 10.01.22 10.01.22 10.01.22 16.01.22 10.01.22
_ Max-Zeit 14:56 13:22 12:46 10:12 23:40 18:34 10:14 10:32 13:14 13:58 01:02
Maximum _ 6,3 C 17,2 C 4,4 C 100 % 1042,4 hPa 0,4 l/m 0,03 h 0,03 h 281 W/m 32,2 km/h
SO (5 Bft)
100,00 %
Durchschnitt _ 1,7 C 1,3 C 1,2 C 98 % 1032,4 hPa #0,8 l/m #6:18 h #30 min. 58 W/m 7,2 km/h (2 Bft) 97,06 %
© 2022 W. Hausmann